sensor_id;sensor_type;location;lat;lon;timestamp;P1;durP1;ratioP1;P2;durP2;ratioP2
17482;SDS011;8858;52.308;20.994;2023-03-14T00:00:12;7.67;;;5.20;;
17482;SDS011;8858;52.308;20.994;2023-03-14T00:02:41;7.40;;;5.57;;
17482;SDS011;8858;52.308;20.994;2023-03-14T00:05:11;7.63;;;5.50;;
17482;SDS011;8858;52.308;20.994;2023-03-14T00:07:40;8.97;;;5.90;;
17482;SDS011;8858;52.308;20.994;2023-03-14T00:10:10;6.70;;;5.20;;
17482;SDS011;8858;52.308;20.994;2023-03-14T00:12:43;8.37;;;5.30;;
17482;SDS011;8858;52.308;20.994;2023-03-14T00:15:13;7.40;;;4.73;;
17482;SDS011;8858;52.308;20.994;2023-03-14T00:17:42;8.07;;;5.40;;
17482;SDS011;8858;52.308;20.994;2023-03-14T00:20:12;8.37;;;5.70;;
17482;SDS011;8858;52.308;20.994;2023-03-14T00:22:41;8.33;;;5.60;;
17482;SDS011;8858;52.308;20.994;2023-03-14T00:25:11;7.53;;;4.90;;
17482;SDS011;8858;52.308;20.994;2023-03-14T00:27:40;8.07;;;5.37;;
17482;SDS011;8858;52.308;20.994;2023-03-14T00:30:08;7.27;;;4.87;;
17482;SDS011;8858;52.308;20.994;2023-03-14T00:32:39;7.10;;;5.60;;
17482;SDS011;8858;52.308;20.994;2023-03-14T00:35:08;10.00;;;5.57;;
17482;SDS011;8858;52.308;20.994;2023-03-14T00:37:39;8.17;;;5.80;;
17482;SDS011;8858;52.308;20.994;2023-03-14T00:40:08;8.67;;;5.57;;
17482;SDS011;8858;52.308;20.994;2023-03-14T00:42:37;8.57;;;5.97;;
17482;SDS011;8858;52.308;20.994;2023-03-14T00:45:06;8.67;;;5.93;;
17482;SDS011;8858;52.308;20.994;2023-03-14T00:47:36;7.97;;;5.83;;
17482;SDS011;8858;52.308;20.994;2023-03-14T00:50:30;11.80;;;6.23;;
17482;SDS011;8858;52.308;20.994;2023-03-14T00:52:58;9.13;;;5.90;;
17482;SDS011;8858;52.308;20.994;2023-03-14T00:55:26;8.80;;;6.00;;
17482;SDS011;8858;52.308;20.994;2023-03-14T00:57:55;10.13;;;5.83;;
17482;SDS011;8858;52.308;20.994;2023-03-14T01:00:23;7.73;;;5.93;;
17482;SDS011;8858;52.308;20.994;2023-03-14T01:02:53;7.37;;;6.00;;
17482;SDS011;8858;52.308;20.994;2023-03-14T01:05:22;9.43;;;6.13;;
17482;SDS011;8858;52.308;20.994;2023-03-14T01:07:53;8.73;;;6.20;;
17482;SDS011;8858;52.308;20.994;2023-03-14T01:10:22;9.63;;;6.27;;
17482;SDS011;8858;52.308;20.994;2023-03-14T01:12:52;9.13;;;5.73;;
17482;SDS011;8858;52.308;20.994;2023-03-14T01:15:20;10.70;;;6.20;;
17482;SDS011;8858;52.308;20.994;2023-03-14T01:17:50;9.00;;;6.33;;
17482;SDS011;8858;52.308;20.994;2023-03-14T01:20:18;7.00;;;5.50;;
17482;SDS011;8858;52.308;20.994;2023-03-14T01:22:47;9.20;;;5.80;;
17482;SDS011;8858;52.308;20.994;2023-03-14T01:25:20;8.50;;;6.17;;
17482;SDS011;8858;52.308;20.994;2023-03-14T01:27:49;9.00;;;6.10;;
17482;SDS011;8858;52.308;20.994;2023-03-14T01:30:17;7.60;;;6.37;;
17482;SDS011;8858;52.308;20.994;2023-03-14T01:32:47;8.57;;;5.83;;
17482;SDS011;8858;52.308;20.994;2023-03-14T01:35:16;10.63;;;6.00;;
17482;SDS011;8858;52.308;20.994;2023-03-14T01:37:47;8.40;;;6.00;;
17482;SDS011;8858;52.308;20.994;2023-03-14T01:40:21;8.23;;;5.80;;
17482;SDS011;8858;52.308;20.994;2023-03-14T01:42:54;10.23;;;6.00;;
17482;SDS011;8858;52.308;20.994;2023-03-14T01:48:33;8.17;;;5.60;;
17482;SDS011;8858;52.308;20.994;2023-03-14T01:51:05;9.47;;;6.13;;
17482;SDS011;8858;52.308;20.994;2023-03-14T01:53:37;9.83;;;6.00;;
17482;SDS011;8858;52.308;20.994;2023-03-14T01:56:11;9.03;;;5.80;;
17482;SDS011;8858;52.308;20.994;2023-03-14T01:58:43;8.87;;;6.27;;
17482;SDS011;8858;52.308;20.994;2023-03-14T02:01:15;8.97;;;6.00;;
17482;SDS011;8858;52.308;20.994;2023-03-14T02:03:48;8.73;;;5.87;;
17482;SDS011;8858;52.308;20.994;2023-03-14T02:06:26;7.50;;;5.97;;
17482;SDS011;8858;52.308;20.994;2023-03-14T02:09:00;8.17;;;6.20;;
17482;SDS011;8858;52.308;20.994;2023-03-14T02:11:35;8.33;;;6.40;;
17482;SDS011;8858;52.308;20.994;2023-03-14T02:14:10;9.57;;;6.07;;
17482;SDS011;8858;52.308;20.994;2023-03-14T02:17:07;9.03;;;5.60;;
17482;SDS011;8858;52.308;20.994;2023-03-14T02:20:18;10.17;;;5.40;;
17482;SDS011;8858;52.308;20.994;2023-03-14T02:22:57;8.57;;;6.33;;
17482;SDS011;8858;52.308;20.994;2023-03-14T02:25:31;8.33;;;5.40;;
17482;SDS011;8858;52.308;20.994;2023-03-14T02:28:08;6.40;;;5.10;;
17482;SDS011;8858;52.308;20.994;2023-03-14T02:30:38;7.47;;;5.13;;
17482;SDS011;8858;52.308;20.994;2023-03-14T02:33:07;8.23;;;6.07;;
17482;SDS011;8858;52.308;20.994;2023-03-14T02:35:39;7.93;;;5.97;;
17482;SDS011;8858;52.308;20.994;2023-03-14T02:38:10;8.00;;;5.90;;
17482;SDS011;8858;52.308;20.994;2023-03-14T02:40:47;5.83;;;5.17;;
17482;SDS011;8858;52.308;20.994;2023-03-14T02:43:17;7.67;;;5.60;;
17482;SDS011;8858;52.308;20.994;2023-03-14T02:45:54;7.57;;;5.63;;
17482;SDS011;8858;52.308;20.994;2023-03-14T02:48:24;7.20;;;5.53;;
17482;SDS011;8858;52.308;20.994;2023-03-14T02:50:56;10.30;;;5.77;;
17482;SDS011;8858;52.308;20.994;2023-03-14T02:53:28;5.87;;;5.03;;
17482;SDS011;8858;52.308;20.994;2023-03-14T02:56:04;7.17;;;5.20;;
17482;SDS011;8858;52.308;20.994;2023-03-14T02:58:36;11.87;;;5.43;;
17482;SDS011;8858;52.308;20.994;2023-03-14T03:01:16;7.37;;;5.50;;
17482;SDS011;8858;52.308;20.994;2023-03-14T03:03:46;8.73;;;5.30;;
17482;SDS011;8858;52.308;20.994;2023-03-14T03:06:18;8.17;;;4.83;;
17482;SDS011;8858;52.308;20.994;2023-03-14T03:08:47;5.23;;;4.70;;
17482;SDS011;8858;52.308;20.994;2023-03-14T03:11:16;6.20;;;5.17;;
17482;SDS011;8858;52.308;20.994;2023-03-14T03:13:46;6.73;;;4.93;;
17482;SDS011;8858;52.308;20.994;2023-03-14T03:16:14;8.17;;;4.97;;
17482;SDS011;8858;52.308;20.994;2023-03-14T03:18:46;6.63;;;4.90;;
17482;SDS011;8858;52.308;20.994;2023-03-14T03:21:14;7.10;;;4.53;;
17482;SDS011;8858;52.308;20.994;2023-03-14T03:23:44;5.57;;;4.93;;
17482;SDS011;8858;52.308;20.994;2023-03-14T03:26:12;7.33;;;4.60;;
17482;SDS011;8858;52.308;20.994;2023-03-14T03:28:40;8.00;;;4.90;;
17482;SDS011;8858;52.308;20.994;2023-03-14T03:31:13;8.30;;;4.60;;
17482;SDS011;8858;52.308;20.994;2023-03-14T03:33:42;7.33;;;4.77;;
17482;SDS011;8858;52.308;20.994;2023-03-14T03:36:11;5.03;;;4.43;;
17482;SDS011;8858;52.308;20.994;2023-03-14T03:38:39;7.43;;;4.67;;
17482;SDS011;8858;52.308;20.994;2023-03-14T03:41:08;6.60;;;4.03;;
17482;SDS011;8858;52.308;20.994;2023-03-14T03:43:37;5.83;;;4.40;;
17482;SDS011;8858;52.308;20.994;2023-03-14T03:46:12;6.07;;;4.30;;
17482;SDS011;8858;52.308;20.994;2023-03-14T03:48:40;5.40;;;4.27;;
17482;SDS011;8858;52.308;20.994;2023-03-14T03:51:11;4.77;;;4.03;;
17482;SDS011;8858;52.308;20.994;2023-03-14T03:53:42;7.53;;;4.43;;
17482;SDS011;8858;52.308;20.994;2023-03-14T03:56:12;5.57;;;4.40;;
17482;SDS011;8858;52.308;20.994;2023-03-14T03:58:42;7.50;;;4.30;;
17482;SDS011;8858;52.308;20.994;2023-03-14T04:01:12;5.10;;;3.87;;
17482;SDS011;8858;52.308;20.994;2023-03-14T04:03:47;6.83;;;4.27;;
17482;SDS011;8858;52.308;20.994;2023-03-14T04:06:17;6.73;;;4.53;;
17482;SDS011;8858;52.308;20.994;2023-03-14T04:08:48;6.20;;;4.47;;
17482;SDS011;8858;52.308;20.994;2023-03-14T04:11:34;5.00;;;4.07;;
17482;SDS011;8858;52.308;20.994;2023-03-14T04:14:11;5.10;;;3.90;;
17482;SDS011;8858;52.308;20.994;2023-03-14T04:16:44;6.27;;;3.83;;
17482;SDS011;8858;52.308;20.994;2023-03-14T04:19:17;4.73;;;3.83;;
17482;SDS011;8858;52.308;20.994;2023-03-14T04:21:46;5.97;;;4.20;;
17482;SDS011;8858;52.308;20.994;2023-03-14T04:24:19;8.17;;;4.10;;
17482;SDS011;8858;52.308;20.994;2023-03-14T04:26:48;5.20;;;4.67;;
17482;SDS011;8858;52.308;20.994;2023-03-14T04:29:17;6.10;;;4.17;;
17482;SDS011;8858;52.308;20.994;2023-03-14T04:31:47;7.60;;;3.87;;
17482;SDS011;8858;52.308;20.994;2023-03-14T04:34:18;5.10;;;3.80;;
17482;SDS011;8858;52.308;20.994;2023-03-14T04:36:51;4.33;;;3.93;;
17482;SDS011;8858;52.308;20.994;2023-03-14T04:39:29;4.83;;;4.10;;
17482;SDS011;8858;52.308;20.994;2023-03-14T04:42:06;7.23;;;3.97;;
17482;SDS011;8858;52.308;20.994;2023-03-14T04:44:36;6.37;;;4.23;;
17482;SDS011;8858;52.308;20.994;2023-03-14T04:47:07;7.03;;;4.03;;
17482;SDS011;8858;52.308;20.994;2023-03-14T04:49:37;5.07;;;3.97;;
17482;SDS011;8858;52.308;20.994;2023-03-14T04:52:11;6.67;;;3.90;;
17482;SDS011;8858;52.308;20.994;2023-03-14T04:54:40;6.63;;;4.07;;
17482;SDS011;8858;52.308;20.994;2023-03-14T04:57:09;5.97;;;3.93;;
17482;SDS011;8858;52.308;20.994;2023-03-14T04:59:38;8.10;;;3.90;;
17482;SDS011;8858;52.308;20.994;2023-03-14T05:02:22;6.57;;;3.63;;
17482;SDS011;8858;52.308;20.994;2023-03-14T05:05:00;5.20;;;3.80;;
17482;SDS011;8858;52.308;20.994;2023-03-14T05:07:50;4.83;;;3.70;;
17482;SDS011;8858;52.308;20.994;2023-03-14T05:10:54;6.17;;;3.80;;
17482;SDS011;8858;52.308;20.994;2023-03-14T05:13:36;5.83;;;3.50;;
17482;SDS011;8858;52.308;20.994;2023-03-14T05:16:25;7.77;;;3.83;;
17482;SDS011;8858;52.308;20.994;2023-03-14T05:19:08;4.47;;;3.10;;
17482;SDS011;8858;52.308;20.994;2023-03-14T05:21:56;8.70;;;3.60;;
17482;SDS011;8858;52.308;20.994;2023-03-14T05:24:45;6.43;;;3.60;;
17482;SDS011;8858;52.308;20.994;2023-03-14T05:27:36;5.10;;;3.30;;
17482;SDS011;8858;52.308;20.994;2023-03-14T05:30:27;5.30;;;3.53;;
17482;SDS011;8858;52.308;20.994;2023-03-14T05:33:09;5.63;;;3.40;;
17482;SDS011;8858;52.308;20.994;2023-03-14T05:35:52;5.13;;;3.43;;
17482;SDS011;8858;52.308;20.994;2023-03-14T05:38:49;6.57;;;3.60;;
17482;SDS011;8858;52.308;20.994;2023-03-14T05:41:36;5.13;;;3.63;;
17482;SDS011;8858;52.308;20.994;2023-03-14T05:44:23;5.83;;;3.40;;
17482;SDS011;8858;52.308;20.994;2023-03-14T05:46:57;7.27;;;4.20;;
17482;SDS011;8858;52.308;20.994;2023-03-14T05:49:34;5.77;;;3.47;;
17482;SDS011;8858;52.308;20.994;2023-03-14T05:52:32;4.40;;;3.53;;
17482;SDS011;8858;52.308;20.994;2023-03-14T05:55:19;8.10;;;3.63;;
17482;SDS011;8858;52.308;20.994;2023-03-14T05:58:10;6.40;;;3.70;;
17482;SDS011;8858;52.308;20.994;2023-03-14T06:01:02;3.70;;;2.93;;
17482;SDS011;8858;52.308;20.994;2023-03-14T06:03:53;4.50;;;3.57;;
17482;SDS011;8858;52.308;20.994;2023-03-14T06:06:22;6.90;;;3.93;;
17482;SDS011;8858;52.308;20.994;2023-03-14T06:08:51;8.97;;;3.53;;
17482;SDS011;8858;52.308;20.994;2023-03-14T06:11:20;4.77;;;3.20;;
17482;SDS011;8858;52.308;20.994;2023-03-14T06:13:49;4.07;;;3.00;;
17482;SDS011;8858;52.308;20.994;2023-03-14T06:16:18;4.37;;;3.37;;
17482;SDS011;8858;52.308;20.994;2023-03-14T06:18:47;5.50;;;3.63;;
17482;SDS011;8858;52.308;20.994;2023-03-14T06:21:18;4.57;;;3.17;;
17482;SDS011;8858;52.308;20.994;2023-03-14T06:23:48;7.60;;;3.37;;
17482;SDS011;8858;52.308;20.994;2023-03-14T06:26:19;6.83;;;4.70;;
17482;SDS011;8858;52.308;20.994;2023-03-14T06:28:48;4.37;;;3.53;;
17482;SDS011;8858;52.308;20.994;2023-03-14T06:31:18;5.40;;;2.87;;
17482;SDS011;8858;52.308;20.994;2023-03-14T06:33:58;3.90;;;3.30;;
17482;SDS011;8858;52.308;20.994;2023-03-14T06:36:29;4.47;;;3.37;;
17482;SDS011;8858;52.308;20.994;2023-03-14T06:38:59;5.53;;;3.20;;
17482;SDS011;8858;52.308;20.994;2023-03-14T06:41:31;5.90;;;3.20;;
17482;SDS011;8858;52.308;20.994;2023-03-14T06:44:00;5.03;;;2.90;;
17482;SDS011;8858;52.308;20.994;2023-03-14T06:46:31;7.13;;;3.30;;
17482;SDS011;8858;52.308;20.994;2023-03-14T06:49:01;6.70;;;3.80;;
17482;SDS011;8858;52.308;20.994;2023-03-14T06:51:32;6.37;;;4.27;;
17482;SDS011;8858;52.308;20.994;2023-03-14T06:54:03;5.80;;;3.40;;
17482;SDS011;8858;52.308;20.994;2023-03-14T06:56:36;6.00;;;3.63;;
17482;SDS011;8858;52.308;20.994;2023-03-14T06:59:04;5.80;;;3.63;;
17482;SDS011;8858;52.308;20.994;2023-03-14T07:01:33;4.77;;;3.43;;
17482;SDS011;8858;52.308;20.994;2023-03-14T07:04:08;5.73;;;3.40;;
17482;SDS011;8858;52.308;20.994;2023-03-14T07:06:42;3.87;;;3.47;;
17482;SDS011;8858;52.308;20.994;2023-03-14T07:09:16;6.83;;;3.53;;
17482;SDS011;8858;52.308;20.994;2023-03-14T07:11:54;5.70;;;3.50;;
17482;SDS011;8858;52.308;20.994;2023-03-14T07:14:24;4.37;;;3.53;;
17482;SDS011;8858;52.308;20.994;2023-03-14T07:16:53;6.47;;;3.63;;
17482;SDS011;8858;52.308;20.994;2023-03-14T07:19:22;5.23;;;3.30;;
17482;SDS011;8858;52.308;20.994;2023-03-14T07:21:50;6.77;;;3.70;;
17482;SDS011;8858;52.308;20.994;2023-03-14T07:24:23;5.70;;;3.77;;
17482;SDS011;8858;52.308;20.994;2023-03-14T07:26:54;4.03;;;3.57;;
17482;SDS011;8858;52.308;20.994;2023-03-14T07:29:23;4.93;;;3.37;;
17482;SDS011;8858;52.308;20.994;2023-03-14T07:31:52;4.63;;;3.70;;
17482;SDS011;8858;52.308;20.994;2023-03-14T07:34:20;7.03;;;3.57;;
17482;SDS011;8858;52.308;20.994;2023-03-14T07:36:49;5.70;;;3.70;;
17482;SDS011;8858;52.308;20.994;2023-03-14T07:39:20;4.40;;;3.40;;
17482;SDS011;8858;52.308;20.994;2023-03-14T07:42:10;5.60;;;3.40;;
17482;SDS011;8858;52.308;20.994;2023-03-14T07:44:42;7.27;;;3.83;;
17482;SDS011;8858;52.308;20.994;2023-03-14T07:47:10;3.87;;;3.47;;
17482;SDS011;8858;52.308;20.994;2023-03-14T07:49:38;7.07;;;3.73;;
17482;SDS011;8858;52.308;20.994;2023-03-14T07:52:06;7.27;;;4.00;;
17482;SDS011;8858;52.308;20.994;2023-03-14T07:54:36;5.33;;;3.47;;
17482;SDS011;8858;52.308;20.994;2023-03-14T07:57:04;4.47;;;3.17;;
17482;SDS011;8858;52.308;20.994;2023-03-14T07:59:33;5.57;;;3.50;;
17482;SDS011;8858;52.308;20.994;2023-03-14T08:02:02;3.80;;;3.43;;
17482;SDS011;8858;52.308;20.994;2023-03-14T08:04:32;7.77;;;3.73;;
17482;SDS011;8858;52.308;20.994;2023-03-14T08:07:00;8.20;;;4.20;;
17482;SDS011;8858;52.308;20.994;2023-03-14T08:09:30;7.00;;;3.73;;
17482;SDS011;8858;52.308;20.994;2023-03-14T08:11:58;5.00;;;4.03;;
17482;SDS011;8858;52.308;20.994;2023-03-14T08:14:26;5.07;;;4.07;;
17482;SDS011;8858;52.308;20.994;2023-03-14T08:16:57;6.30;;;3.77;;
17482;SDS011;8858;52.308;20.994;2023-03-14T08:19:26;5.43;;;3.63;;
17482;SDS011;8858;52.308;20.994;2023-03-14T08:21:55;5.63;;;3.83;;
17482;SDS011;8858;52.308;20.994;2023-03-14T08:24:24;4.10;;;3.70;;
17482;SDS011;8858;52.308;20.994;2023-03-14T08:26:53;6.50;;;4.10;;
17482;SDS011;8858;52.308;20.994;2023-03-14T08:29:21;6.63;;;3.70;;
17482;SDS011;8858;52.308;20.994;2023-03-14T08:31:50;7.70;;;4.00;;
17482;SDS011;8858;52.308;20.994;2023-03-14T08:34:23;6.00;;;4.30;;
17482;SDS011;8858;52.308;20.994;2023-03-14T08:36:52;6.00;;;3.30;;
17482;SDS011;8858;52.308;20.994;2023-03-14T08:39:23;8.10;;;4.07;;
17482;SDS011;8858;52.308;20.994;2023-03-14T08:41:52;7.57;;;3.90;;
17482;SDS011;8858;52.308;20.994;2023-03-14T08:44:23;4.83;;;3.20;;
17482;SDS011;8858;52.308;20.994;2023-03-14T08:46:52;4.17;;;3.50;;
17482;SDS011;8858;52.308;20.994;2023-03-14T08:49:21;6.77;;;3.30;;
17482;SDS011;8858;52.308;20.994;2023-03-14T08:51:51;4.57;;;3.00;;
17482;SDS011;8858;52.308;20.994;2023-03-14T08:54:20;5.60;;;3.57;;
17482;SDS011;8858;52.308;20.994;2023-03-14T08:56:50;7.23;;;3.00;;
17482;SDS011;8858;52.308;20.994;2023-03-14T08:59:18;5.10;;;3.57;;
17482;SDS011;8858;52.308;20.994;2023-03-14T09:01:47;7.37;;;3.77;;
17482;SDS011;8858;52.308;20.994;2023-03-14T09:04:16;5.83;;;3.50;;
17482;SDS011;8858;52.308;20.994;2023-03-14T09:06:44;4.40;;;3.10;;
17482;SDS011;8858;52.308;20.994;2023-03-14T09:09:15;3.87;;;3.30;;
17482;SDS011;8858;52.308;20.994;2023-03-14T09:11:44;7.20;;;3.67;;
17482;SDS011;8858;52.308;20.994;2023-03-14T09:14:13;6.07;;;3.80;;
17482;SDS011;8858;52.308;20.994;2023-03-14T09:16:42;4.57;;;3.40;;
17482;SDS011;8858;52.308;20.994;2023-03-14T09:19:10;5.97;;;3.47;;
17482;SDS011;8858;52.308;20.994;2023-03-14T09:21:39;4.97;;;3.37;;
17482;SDS011;8858;52.308;20.994;2023-03-14T09:24:11;5.50;;;3.03;;
17482;SDS011;8858;52.308;20.994;2023-03-14T09:26:41;4.70;;;3.00;;
17482;SDS011;8858;52.308;20.994;2023-03-14T09:29:10;7.07;;;3.13;;
17482;SDS011;8858;52.308;20.994;2023-03-14T09:31:39;4.73;;;3.00;;
17482;SDS011;8858;52.308;20.994;2023-03-14T09:34:07;6.30;;;3.50;;
17482;SDS011;8858;52.308;20.994;2023-03-14T09:36:39;6.37;;;3.60;;
17482;SDS011;8858;52.308;20.994;2023-03-14T09:39:07;9.27;;;3.13;;
17482;SDS011;8858;52.308;20.994;2023-03-14T09:41:36;5.60;;;2.93;;
17482;SDS011;8858;52.308;20.994;2023-03-14T09:44:11;7.33;;;3.20;;
17482;SDS011;8858;52.308;20.994;2023-03-14T09:46:45;7.10;;;3.70;;
17482;SDS011;8858;52.308;20.994;2023-03-14T09:49:19;9.67;;;2.93;;
17482;SDS011;8858;52.308;20.994;2023-03-14T09:51:53;4.40;;;3.20;;
17482;SDS011;8858;52.308;20.994;2023-03-14T09:54:26;4.17;;;2.77;;
17482;SDS011;8858;52.308;20.994;2023-03-14T09:57:01;4.27;;;2.80;;
17482;SDS011;8858;52.308;20.994;2023-03-14T09:59:34;5.07;;;3.20;;
17482;SDS011;8858;52.308;20.994;2023-03-14T10:02:15;4.57;;;3.00;;
17482;SDS011;8858;52.308;20.994;2023-03-14T10:04:47;4.07;;;2.60;;
17482;SDS011;8858;52.308;20.994;2023-03-14T10:07:18;2.97;;;2.67;;
17482;SDS011;8858;52.308;20.994;2023-03-14T10:09:49;8.53;;;3.20;;
17482;SDS011;8858;52.308;20.994;2023-03-14T10:12:19;4.50;;;2.90;;
17482;SDS011;8858;52.308;20.994;2023-03-14T10:15:02;4.83;;;2.83;;
17482;SDS011;8858;52.308;20.994;2023-03-14T10:17:37;4.00;;;2.87;;
17482;SDS011;8858;52.308;20.994;2023-03-14T10:20:15;3.23;;;2.90;;
17482;SDS011;8858;52.308;20.994;2023-03-14T10:22:59;5.30;;;3.33;;
17482;SDS011;8858;52.308;20.994;2023-03-14T10:25:29;3.93;;;3.03;;
17482;SDS011;8858;52.308;20.994;2023-03-14T10:28:00;6.57;;;3.10;;
17482;SDS011;8858;52.308;20.994;2023-03-14T10:30:33;5.03;;;3.10;;
17482;SDS011;8858;52.308;20.994;2023-03-14T10:33:11;6.30;;;3.13;;
17482;SDS011;8858;52.308;20.994;2023-03-14T10:35:52;5.73;;;2.87;;
17482;SDS011;8858;52.308;20.994;2023-03-14T10:38:25;6.80;;;3.07;;
17482;SDS011;8858;52.308;20.994;2023-03-14T10:40:58;4.63;;;3.00;;
17482;SDS011;8858;52.308;20.994;2023-03-14T10:43:27;8.10;;;2.87;;
17482;SDS011;8858;52.308;20.994;2023-03-14T10:46:05;4.83;;;2.87;;
17482;SDS011;8858;52.308;20.994;2023-03-14T10:48:56;4.70;;;2.93;;
17482;SDS011;8858;52.308;20.994;2023-03-14T10:51:28;5.13;;;3.00;;
17482;SDS011;8858;52.308;20.994;2023-03-14T10:53:59;7.00;;;3.10;;
17482;SDS011;8858;52.308;20.994;2023-03-14T10:56:33;3.87;;;2.60;;
17482;SDS011;8858;52.308;20.994;2023-03-14T10:59:04;5.57;;;2.80;;
17482;SDS011;8858;52.308;20.994;2023-03-14T11:01:41;7.33;;;2.90;;
17482;SDS011;8858;52.308;20.994;2023-03-14T11:04:22;5.43;;;2.70;;
17482;SDS011;8858;52.308;20.994;2023-03-14T11:07:04;2.90;;;2.50;;
17482;SDS011;8858;52.308;20.994;2023-03-14T11:09:39;6.70;;;2.97;;
17482;SDS011;8858;52.308;20.994;2023-03-14T11:12:20;2.97;;;2.60;;
17482;SDS011;8858;52.308;20.994;2023-03-14T11:15:09;4.77;;;3.00;;
17482;SDS011;8858;52.308;20.994;2023-03-14T11:17:48;6.83;;;3.17;;
17482;SDS011;8858;52.308;20.994;2023-03-14T11:20:31;4.67;;;3.23;;
17482;SDS011;8858;52.308;20.994;2023-03-14T11:23:08;4.33;;;2.97;;
17482;SDS011;8858;52.308;20.994;2023-03-14T11:25:43;4.10;;;2.93;;
17482;SDS011;8858;52.308;20.994;2023-03-14T11:28:18;5.80;;;3.27;;
17482;SDS011;8858;52.308;20.994;2023-03-14T11:31:15;4.03;;;2.97;;
17482;SDS011;8858;52.308;20.994;2023-03-14T11:33:54;4.47;;;3.30;;
17482;SDS011;8858;52.308;20.994;2023-03-14T11:36:29;3.20;;;2.90;;
17482;SDS011;8858;52.308;20.994;2023-03-14T11:39:08;4.90;;;3.37;;
17482;SDS011;8858;52.308;20.994;2023-03-14T11:41:42;5.93;;;3.13;;
17482;SDS011;8858;52.308;20.994;2023-03-14T11:44:17;5.57;;;2.83;;
17482;SDS011;8858;52.308;20.994;2023-03-14T11:46:48;5.63;;;3.30;;
17482;SDS011;8858;52.308;20.994;2023-03-14T11:49:25;6.37;;;3.20;;
17482;SDS011;8858;52.308;20.994;2023-03-14T11:52:00;7.27;;;3.07;;
17482;SDS011;8858;52.308;20.994;2023-03-14T11:54:35;6.23;;;3.27;;
17482;SDS011;8858;52.308;20.994;2023-03-14T11:57:10;6.30;;;3.77;;
17482;SDS011;8858;52.308;20.994;2023-03-14T11:59:44;5.43;;;3.60;;
17482;SDS011;8858;52.308;20.994;2023-03-14T12:02:21;5.00;;;3.57;;
17482;SDS011;8858;52.308;20.994;2023-03-14T12:05:03;4.03;;;3.50;;
17482;SDS011;8858;52.308;20.994;2023-03-14T12:08:08;5.80;;;3.70;;
17482;SDS011;8858;52.308;20.994;2023-03-14T12:11:05;5.00;;;3.33;;
17482;SDS011;8858;52.308;20.994;2023-03-14T12:13:40;6.37;;;3.97;;
17482;SDS011;8858;52.308;20.994;2023-03-14T12:16:22;5.53;;;3.37;;
17482;SDS011;8858;52.308;20.994;2023-03-14T12:19:13;5.73;;;3.83;;
17482;SDS011;8858;52.308;20.994;2023-03-14T12:21:54;8.83;;;3.80;;
17482;SDS011;8858;52.308;20.994;2023-03-14T12:24:28;4.80;;;3.70;;
17482;SDS011;8858;52.308;20.994;2023-03-14T12:26:59;6.37;;;3.80;;
17482;SDS011;8858;52.308;20.994;2023-03-14T12:29:29;5.10;;;3.70;;
17482;SDS011;8858;52.308;20.994;2023-03-14T12:32:08;7.20;;;4.13;;
17482;SDS011;8858;52.308;20.994;2023-03-14T12:34:51;9.23;;;4.23;;
17482;SDS011;8858;52.308;20.994;2023-03-14T12:37:25;9.00;;;4.47;;
17482;SDS011;8858;52.308;20.994;2023-03-14T12:40:06;6.03;;;3.90;;
17482;SDS011;8858;52.308;20.994;2023-03-14T12:42:56;6.70;;;4.23;;
17482;SDS011;8858;52.308;20.994;2023-03-14T12:45:27;6.80;;;4.17;;
17482;SDS011;8858;52.308;20.994;2023-03-14T12:48:09;7.23;;;4.97;;
17482;SDS011;8858;52.308;20.994;2023-03-14T12:50:43;6.03;;;4.33;;
17482;SDS011;8858;52.308;20.994;2023-03-14T12:56:28;5.43;;;4.67;;
17482;SDS011;8858;52.308;20.994;2023-03-14T12:59:12;9.43;;;4.43;;
17482;SDS011;8858;52.308;20.994;2023-03-14T13:01:53;6.27;;;4.03;;
17482;SDS011;8858;52.308;20.994;2023-03-14T13:04:27;7.00;;;4.40;;
17482;SDS011;8858;52.308;20.994;2023-03-14T13:07:10;6.37;;;4.53;;
17482;SDS011;8858;52.308;20.994;2023-03-14T13:12:28;6.10;;;4.50;;
17482;SDS011;8858;52.308;20.994;2023-03-14T13:17:59;6.90;;;4.87;;
17482;SDS011;8858;52.308;20.994;2023-03-14T13:20:31;9.20;;;4.83;;
17482;SDS011;8858;52.308;20.994;2023-03-14T13:23:01;10.00;;;5.40;;
17482;SDS011;8858;52.308;20.994;2023-03-14T13:25:33;6.77;;;4.83;;
17482;SDS011;8858;52.308;20.994;2023-03-14T13:28:03;7.70;;;5.43;;
17482;SDS011;8858;52.308;20.994;2023-03-14T13:30:38;7.13;;;4.97;;
17482;SDS011;8858;52.308;20.994;2023-03-14T13:33:11;6.50;;;5.10;;
17482;SDS011;8858;52.308;20.994;2023-03-14T13:35:44;6.87;;;5.70;;
17482;SDS011;8858;52.308;20.994;2023-03-14T13:38:15;9.30;;;5.33;;
17482;SDS011;8858;52.308;20.994;2023-03-14T13:40:48;8.33;;;5.63;;
17482;SDS011;8858;52.308;20.994;2023-03-14T13:43:18;7.90;;;5.30;;
17482;SDS011;8858;52.308;20.994;2023-03-14T13:45:49;7.33;;;5.50;;
17482;SDS011;8858;52.308;20.994;2023-03-14T13:48:19;7.17;;;5.70;;
17482;SDS011;8858;52.308;20.994;2023-03-14T13:50:50;8.83;;;5.37;;
17482;SDS011;8858;52.308;20.994;2023-03-14T13:53:20;6.30;;;5.60;;
17482;SDS011;8858;52.308;20.994;2023-03-14T13:55:51;8.63;;;6.07;;
17482;SDS011;8858;52.308;20.994;2023-03-14T13:58:23;7.07;;;5.17;;
17482;SDS011;8858;52.308;20.994;2023-03-14T14:00:55;7.43;;;5.53;;
17482;SDS011;8858;52.308;20.994;2023-03-14T14:03:30;12.13;;;5.47;;
17482;SDS011;8858;52.308;20.994;2023-03-14T14:06:00;7.70;;;4.83;;
17482;SDS011;8858;52.308;20.994;2023-03-14T14:08:29;8.47;;;5.00;;
17482;SDS011;8858;52.308;20.994;2023-03-14T14:11:00;7.90;;;5.33;;
17482;SDS011;8858;52.308;20.994;2023-03-14T14:13:31;6.30;;;5.17;;
17482;SDS011;8858;52.308;20.994;2023-03-14T14:16:04;6.30;;;4.87;;
17482;SDS011;8858;52.308;20.994;2023-03-14T14:18:34;8.40;;;5.80;;
17482;SDS011;8858;52.308;20.994;2023-03-14T14:21:06;7.60;;;5.40;;
17482;SDS011;8858;52.308;20.994;2023-03-14T14:23:37;5.97;;;5.33;;
17482;SDS011;8858;52.308;20.994;2023-03-14T14:26:07;10.17;;;6.47;;
17482;SDS011;8858;52.308;20.994;2023-03-14T14:28:36;15.43;;;10.23;;
17482;SDS011;8858;52.308;20.994;2023-03-14T14:31:17;11.30;;;6.00;;
17482;SDS011;8858;52.308;20.994;2023-03-14T14:33:57;8.57;;;6.10;;
17482;SDS011;8858;52.308;20.994;2023-03-14T14:36:29;7.53;;;5.90;;
17482;SDS011;8858;52.308;20.994;2023-03-14T14:39:05;9.80;;;5.93;;
17482;SDS011;8858;52.308;20.994;2023-03-14T14:41:40;12.80;;;6.30;;
17482;SDS011;8858;52.308;20.994;2023-03-14T14:44:10;10.47;;;6.23;;
17482;SDS011;8858;52.308;20.994;2023-03-14T14:46:40;9.03;;;6.20;;
17482;SDS011;8858;52.308;20.994;2023-03-14T14:49:10;8.53;;;6.27;;
17482;SDS011;8858;52.308;20.994;2023-03-14T14:51:41;7.87;;;5.77;;
17482;SDS011;8858;52.308;20.994;2023-03-14T14:54:15;9.07;;;6.07;;
17482;SDS011;8858;52.308;20.994;2023-03-14T14:56:49;7.93;;;5.40;;
17482;SDS011;8858;52.308;20.994;2023-03-14T14:59:23;10.70;;;5.73;;
17482;SDS011;8858;52.308;20.994;2023-03-14T15:01:55;7.70;;;5.60;;
17482;SDS011;8858;52.308;20.994;2023-03-14T15:04:29;7.30;;;5.23;;
17482;SDS011;8858;52.308;20.994;2023-03-14T15:06:58;8.17;;;6.30;;
17482;SDS011;8858;52.308;20.994;2023-03-14T15:09:30;8.00;;;5.73;;
17482;SDS011;8858;52.308;20.994;2023-03-14T15:12:00;10.13;;;5.53;;
17482;SDS011;8858;52.308;20.994;2023-03-14T15:14:28;6.63;;;5.07;;
17482;SDS011;8858;52.308;20.994;2023-03-14T15:16:57;7.87;;;4.90;;
17482;SDS011;8858;52.308;20.994;2023-03-14T15:19:26;10.13;;;5.20;;
17482;SDS011;8858;52.308;20.994;2023-03-14T15:21:58;6.63;;;5.00;;
17482;SDS011;8858;52.308;20.994;2023-03-14T15:24:26;5.70;;;4.63;;
17482;SDS011;8858;52.308;20.994;2023-03-14T15:26:55;9.73;;;5.70;;
17482;SDS011;8858;52.308;20.994;2023-03-14T15:29:26;6.37;;;4.63;;
17482;SDS011;8858;52.308;20.994;2023-03-14T15:31:55;5.93;;;5.03;;
17482;SDS011;8858;52.308;20.994;2023-03-14T15:34:27;8.50;;;5.10;;
17482;SDS011;8858;52.308;20.994;2023-03-14T15:36:56;11.87;;;6.57;;